»·PEaware :: N982YR KRNM-KSNA

N982YR :: KRNM-KSNA

FLIGHT INFORMATION

Flight Status: Arrived
Operator: Privately registered:
United States
More flights under this callsign
Pilot: Anonymous 15639 (15639)
Aircraft: CESSNA 172 SKYHAWK
(C172)
More flights by this aircraft type
Origin: KRNM Ramona
United States
Destination: KSNA John Wayne-Orange Co
United States
More flights between these airports :: More routes between these airports
Route: OCN V23 SLI
File this flight plan on PilotEdge
Remarks: TEC route SANP3
Altitude:
(Current/Filed)
6,000ft
Speed:
(Current/Filed)
120kts
Departed: 28-Nov-18 08:52 AM
Arrived: 28-Nov-18 09:48 AM
Distance/Time
Traveled:
61nm/0:56
Distance/Time
To Go:
Arrived

Flight Plot

Page will automatically refresh every two minutes.


Map Options




Map Legend


Flown Route
Filed Route
Departure Airport
Arrival Airport
Navaid (VOR, NDB)
Fix

Horizontal Profiles

Position Reports

Time Latitude Longitude Heading Altitude Ground
Speed
28-Nov-18 08:36 33.039293 -116.908028 275 1396ft 0kts
28-Nov-18 08:37 33.039293 -116.908028 275 1396ft 0kts
28-Nov-18 08:38 33.039293 -116.908028 275 1396ft 0kts
28-Nov-18 08:39 33.039293 -116.908028 275 1396ft 0kts
28-Nov-18 08:40 33.039293 -116.908028 275 1396ft 0kts
28-Nov-18 08:41 33.039293 -116.908029 275 1396ft 0kts
28-Nov-18 08:42 33.039293 -116.908029 275 1396ft 0kts
28-Nov-18 08:43 33.039293 -116.908029 275 1396ft 0kts
28-Nov-18 08:44 33.039293 -116.908029 275 1396ft 0kts
28-Nov-18 08:45 33.039293 -116.908029 275 1396ft 0kts
28-Nov-18 08:46 33.039293 -116.908029 275 1396ft 0kts
28-Nov-18 08:47 33.039293 -116.908029 275 1396ft 0kts
28-Nov-18 08:48 33.039293 -116.908029 275 1396ft 0kts
28-Nov-18 08:49 33.039293 -116.908029 275 1396ft 0kts
28-Nov-18 08:50 33.039157 -116.908208 184 1396ft 0kts
28-Nov-18 08:51 33.039157 -116.908208 184 1396ft 0kts
28-Nov-18 08:52 33.038712 -116.907431 101 1396ft 8kts
28-Nov-18 08:53 33.038503 -116.907202 188 1396ft 0kts
28-Nov-18 08:54 33.038501 -116.907203 187 1396ft 0kts
28-Nov-18 08:55 33.039330 -116.917433 279 1495ft 71kts
28-Nov-18 08:56 33.042353 -116.942358 283 2080ft 78kts
28-Nov-18 08:57 33.046263 -116.967964 298 2702ft 80kts
28-Nov-18 08:58 33.058947 -116.989046 295 3304ft 81kts
28-Nov-18 08:59 33.067954 -117.012688 303 3915ft 77kts
28-Nov-18 09:00 33.078773 -117.034513 302 4528ft 77kts
28-Nov-18 09:01 33.088459 -117.057378 303 5108ft 77kts
28-Nov-18 09:02 33.099268 -117.082713 292 5579ft 87kts
28-Nov-18 09:03 33.110407 -117.109196 290 5988ft 101kts
28-Nov-18 09:04 33.125135 -117.144383 292 5981ft 126kts
28-Nov-18 09:05 33.141160 -117.182160 292 5981ft 127kts
28-Nov-18 09:06 33.157103 -117.219855 292 5983ft 128kts
28-Nov-18 09:07 33.173166 -117.257894 293 5985ft 129kts
28-Nov-18 09:08 33.188936 -117.295420 302 5989ft 120kts
28-Nov-18 09:09 33.203705 -117.329868 301 5994ft 114kts
28-Nov-18 09:10 33.217777 -117.363386 300 5998ft 111kts
28-Nov-18 09:11 33.231627 -117.396371 300 5999ft 110kts
28-Nov-18 09:12 33.248702 -117.426170 316 6000ft 108kts
28-Nov-18 09:13 33.269996 -117.451633 318 6001ft 108kts
28-Nov-18 09:14 33.291530 -117.476632 317 6000ft 108kts
28-Nov-18 09:15 33.312970 -117.501940 319 5998ft 108kts
28-Nov-18 09:16 33.334629 -117.527253 319 5997ft 109kts
28-Nov-18 09:17 33.356421 -117.552683 320 5995ft 110kts
28-Nov-18 09:18 33.378601 -117.578436 314 5987ft 116kts
28-Nov-18 09:19 33.402038 -117.605998 320 5981ft 114kts
28-Nov-18 09:20 33.424518 -117.632247 319 5980ft 111kts
28-Nov-18 09:21 33.446735 -117.658251 318 5979ft 110kts
28-Nov-18 09:22 33.468798 -117.684090 317 5977ft 110kts
28-Nov-18 09:23 33.490662 -117.709733 317 5976ft 110kts
28-Nov-18 09:24 33.512818 -117.734741 332 5972ft 109kts
28-Nov-18 09:25 33.541755 -117.746318 340 5974ft 110kts
28-Nov-18 09:26 33.570978 -117.757187 340 5973ft 110kts
28-Nov-18 09:27 33.600341 -117.767941 340 5972ft 110kts
28-Nov-18 09:28 33.629884 -117.778681 340 5973ft 110kts
28-Nov-18 09:29 33.659286 -117.789394 340 5973ft 110kts
28-Nov-18 09:30 33.688717 -117.800094 341 5974ft 110kts
28-Nov-18 09:31 33.718192 -117.810803 341 5974ft 110kts
28-Nov-18 09:32 33.747654 -117.821505 341 5973ft 110kts
28-Nov-18 09:33 33.777060 -117.832184 341 5973ft 110kts
28-Nov-18 09:34 33.806729 -117.842956 341 5858ft 115kts
28-Nov-18 09:35 33.838494 -117.854914 341 5156ft 122kts
28-Nov-18 09:36 33.871086 -117.867394 352 4448ft 124kts
28-Nov-18 09:37 33.882355 -117.833227 91 4005ft 123kts
28-Nov-18 09:38 33.880117 -117.792634 91 4008ft 121kts
28-Nov-18 09:39 33.877875 -117.752007 91 4010ft 121kts
28-Nov-18 09:40 33.875640 -117.711426 91 4012ft 121kts
28-Nov-18 09:41 33.879375 -117.673383 28 4012ft 115kts
28-Nov-18 09:42 33.888393 -117.695094 211 4013ft 121kts
28-Nov-18 09:43 33.858975 -117.713958 238 3991ft 122kts
28-Nov-18 09:44 33.842800 -117.751299 221 3413ft 127kts
28-Nov-18 09:45 33.816112 -117.778686 212 3011ft 123kts
28-Nov-18 09:46 33.785131 -117.799406 208 2392ft 130kts
28-Nov-18 09:47 33.754121 -117.819057 207 1692ft 123kts
28-Nov-18 09:48 33.724488 -117.838255 206 1042ft 116kts
28-Nov-18 09:49 33.698494 -117.854420 206 461ft 89kts
28-Nov-18 09:50 33.679025 -117.866729 205 60ft 58kts
28-Nov-18 09:51 33.675999 -117.869895 293 60ft 0kts
28-Nov-18 09:52 33.675684 -117.871277 295 60ft 0kts

Navigation Log

Ident Type
Flight plan parsing failed, navigation log unavailable